Time;durP1;ratioP1;P1;durP2;ratioP2;P2;SDS_P1;SDS_P2;PMS_P1;PMS_P2;Temp;Humidity;BMP_temperature;BMP_pressure;BME280_temperature;BME280_humidity;BME280_pressure;Samples;Min_cycle;Max_cycle;Signal;HPM_P1;HPM_P2
2023/01/31 00:01:21;;;;;;;0.70;0.35;;;;;;;12.71;20.71;101665.81;5014703;28;20038;-50
2023/01/31 00:03:52;;;;;;;0.88;0.30;;;;;;;12.75;20.85;101667.06;5020878;28;20029;-49
2023/01/31 00:06:21;;;;;;;0.32;0.32;;;;;;;12.65;21.06;101677.34;5034432;28;20032;-49
2023/01/31 00:08:49;;;;;;;1.08;0.20;;;;;;;12.78;21.32;101676.59;5034103;28;20108;-49
2023/01/31 00:11:17;;;;;;;1.65;0.25;;;;;;;12.55;20.54;101687.66;5034197;28;20033;-48
2023/01/31 00:13:43;;;;;;;0.47;0.40;;;;;;;12.79;20.51;101689.00;5034206;28;20109;-49
2023/01/31 00:16:11;;;;;;;0.47;0.28;;;;;;;12.67;21.55;101691.44;5034475;28;20588;-51
2023/01/31 00:18:38;;;;;;;0.52;0.35;;;;;;;12.76;21.21;101694.75;5034262;28;20057;-49
2023/01/31 00:21:19;;;;;;;1.00;0.43;;;;;;;12.69;22.03;101695.56;5034228;28;20108;-49
2023/01/31 00:23:47;;;;;;;0.85;0.32;;;;;;;12.47;22.29;101698.53;5034010;28;20418;-49
2023/01/31 00:26:23;;;;;;;0.75;0.30;;;;;;;12.65;21.57;101698.84;5034367;28;20013;-49
2023/01/31 00:28:51;;;;;;;0.95;0.40;;;;;;;12.66;22.11;101695.16;5034021;28;20022;-49
2023/01/31 00:31:19;;;;;;;0.60;0.43;;;;;;;12.49;21.62;101699.16;5034747;28;20039;-50
2023/01/31 00:33:46;;;;;;;0.77;0.40;;;;;;;12.46;22.40;101696.88;5034175;28;20021;-49
2023/01/31 00:36:15;;;;;;;2.05;0.47;;;;;;;12.15;22.66;101704.31;5033939;28;20033;-50
2023/01/31 00:38:43;;;;;;;1.15;0.28;;;;;;;12.06;22.05;101712.72;5034183;28;20029;-49
2023/01/31 00:41:10;;;;;;;0.28;0.20;;;;;;;11.97;22.56;101706.66;5034041;28;20069;-49
2023/01/31 00:43:37;;;;;;;0.40;0.32;;;;;;;11.73;22.05;101710.56;5033820;28;20391;-49
2023/01/31 00:46:04;;;;;;;0.65;0.40;;;;;;;12.11;21.68;101708.44;5033692;28;20053;-52
2023/01/31 00:48:30;;;;;;;0.77;0.50;;;;;;;12.37;21.72;101707.78;5028167;28;20045;-49
2023/01/31 00:50:56;;;;;;;0.52;0.32;;;;;;;12.48;21.37;101708.25;5033698;28;20034;-50
2023/01/31 00:53:24;;;;;;;0.20;0.20;;;;;;;12.05;21.94;101713.75;5030719;28;20103;-50
2023/01/31 00:55:52;;;;;;;0.40;0.30;;;;;;;12.08;22.37;101716.84;5033546;28;20472;-53
2023/01/31 00:58:19;;;;;;;0.30;0.20;;;;;;;11.84;22.59;101710.06;5033639;28;20029;-49
2023/01/31 01:00:46;;;;;;;1.60;0.50;;;;;;;11.79;22.65;101714.31;5033157;28;20080;-48
2023/01/31 01:03:12;;;;;;;0.45;0.20;;;;;;;11.69;22.77;101713.81;5033988;28;20095;-49
2023/01/31 01:05:39;;;;;;;1.02;0.30;;;;;;;11.81;22.62;101721.16;5033294;28;20021;-52
2023/01/31 01:08:05;;;;;;;1.00;0.52;;;;;;;11.53;23.07;101714.88;5013784;28;20030;-52
2023/01/31 01:10:32;;;;;;;0.80;0.50;;;;;;;11.71;23.10;101717.94;5013079;28;20040;-50
2023/01/31 01:12:59;;;;;;;1.33;0.43;;;;;;;11.62;23.48;101722.63;5029278;28;20040;-49
2023/01/31 01:15:25;;;;;;;0.55;0.30;;;;;;;11.75;23.55;101721.91;5033450;28;20502;-50
2023/01/31 01:17:51;;;;;;;1.30;0.40;;;;;;;11.80;23.79;101727.53;5033181;28;20033;-51
2023/01/31 01:20:18;;;;;;;1.25;0.70;;;;;;;11.81;24.80;101729.22;5033392;28;20083;-51
2023/01/31 01:22:45;;;;;;;1.02;0.60;;;;;;;11.98;25.31;101726.25;5030038;28;20029;-53
2023/01/31 01:25:11;;;;;;;0.70;0.40;;;;;;;11.87;25.38;101719.56;5033362;28;20067;-49
2023/01/31 01:27:37;;;;;;;0.43;0.43;;;;;;;11.85;25.85;101719.75;5033099;28;20503;-52
2023/01/31 01:30:05;;;;;;;0.88;0.43;;;;;;;11.82;26.16;101725.50;5033026;28;20068;-60
2023/01/31 01:32:31;;;;;;;0.70;0.40;;;;;;;11.68;26.65;101729.06;5032890;28;20018;-59
2023/01/31 01:34:57;;;;;;;0.70;0.50;;;;;;;11.63;26.04;101732.31;5032276;28;20044;-58
2023/01/31 01:37:23;;;;;;;0.35;0.30;;;;;;;11.59;26.17;101730.19;5041694;28;20033;-60
2023/01/31 01:39:51;;;;;;;1.20;0.60;;;;;;;11.51;26.34;101739.22;5045458;28;20448;-60
2023/01/31 01:42:23;;;;;;;1.00;0.57;;;;;;;11.46;26.57;101743.47;5044147;28;20022;-60
2023/01/31 01:44:53;;;;;;;1.08;0.75;;;;;;;11.39;27.68;101745.25;5032538;28;20025;-58
2023/01/31 01:47:44;;;;;;;1.77;0.60;;;;;;;11.31;28.70;101749.69;5032791;28;20025;-60
2023/01/31 01:50:27;;;;;;;1.52;0.88;;;;;;;11.08;29.12;101746.34;5052365;28;20040;-60
2023/01/31 01:52:59;;;;;;;2.60;1.52;;;;;;;10.99;28.88;101752.78;5026655;28;20556;-59
2023/01/31 01:55:41;;;;;;;2.00;1.23;;;;;;;10.92;28.88;101751.88;5027867;28;20049;-58
2023/01/31 01:58:32;;;;;;;2.20;1.30;;;;;;;11.13;29.55;101751.13;5032105;28;20475;-59
2023/01/31 02:00:59;;;;;;;2.60;1.02;;;;;;;10.90;30.04;101745.91;5011884;28;20037;-59
2023/01/31 02:03:26;;;;;;;1.92;1.45;;;;;;;10.67;30.28;101754.88;5012744;28;20045;-60
2023/01/31 02:05:55;;;;;;;2.25;1.27;;;;;;;10.47;30.82;101756.41;5012512;28;20550;-59
2023/01/31 02:08:25;;;;;;;2.00;1.30;;;;;;;10.34;30.84;101750.88;5018947;28;20029;-57
2023/01/31 02:11:25;;;;;;;1.38;0.90;;;;;;;10.26;31.67;101765.97;5032313;28;20028;-59
2023/01/31 02:14:06;;;;;;;2.95;1.30;;;;;;;10.18;32.25;101770.53;5029562;28;20483;-59
2023/01/31 02:16:32;;;;;;;1.40;1.00;;;;;;;9.99;32.34;101774.53;5025831;28;20054;-59
2023/01/31 02:18:59;;;;;;;2.90;1.50;;;;;;;9.92;32.17;101769.06;5015733;28;20030;-59
2023/01/31 02:21:51;;;;;;;3.72;1.40;;;;;;;9.70;32.15;101770.72;5032096;28;20029;-59
2023/01/31 02:24:47;;;;;;;2.20;1.60;;;;;;;9.69;32.50;101773.56;5031981;28;20060;-59
2023/01/31 02:27:23;;;;;;;3.17;1.30;;;;;;;9.59;33.07;101771.13;5031985;28;20029;-59
2023/01/31 02:30:10;;;;;;;1.73;1.50;;;;;;;9.47;33.90;101772.53;5032175;28;20041;-61
2023/01/31 02:33:12;;;;;;;2.88;1.13;;;;;;;9.36;34.60;101767.59;5031745;28;20393;-55
2023/01/31 02:35:54;;;;;;;2.60;1.10;;;;;;;9.22;34.69;101782.53;5031742;28;20472;-48
2023/01/31 02:38:27;;;;;;;2.58;1.20;;;;;;;9.18;35.63;101778.53;5031393;28;20061;-47
2023/01/31 02:41:05;;;;;;;1.02;0.80;;;;;;;9.04;35.50;101774.75;5031426;28;20040;-48
2023/01/31 02:49:34;;;;;;;;;;;;;;;8.72;36.38;101787.22;5030679;28;20091;-48
2023/01/31 02:52:16;;;;;;;2.70;1.92;;;;;;;8.64;36.84;101794.38;5031640;28;19917;-48
2023/01/31 02:57:53;;;;;;;3.92;2.45;;;;;;;8.39;37.73;101788.28;4990640;28;20045;-47
2023/01/31 03:00:21;;;;;;;1.90;1.30;;;;;;;8.21;38.04;101788.41;4990164;28;20027;-48
2023/01/31 03:02:47;;;;;;;2.05;1.50;;;;;;;8.19;38.87;101791.25;4989881;28;20422;-50
2023/01/31 03:05:15;;;;;;;3.22;2.08;;;;;;;8.13;38.85;101791.06;4990378;28;20042;-47
2023/01/31 03:07:46;;;;;;;3.53;2.50;;;;;;;8.12;39.22;101790.25;4989876;28;20045;-48
2023/01/31 03:10:24;;;;;;;3.90;2.53;;;;;;;7.94;39.40;101784.25;4989203;28;20050;-47
2023/01/31 03:13:19;;;;;;;3.92;2.78;;;;;;;7.82;39.53;101780.22;4990060;28;20030;-48
2023/01/31 03:19:12;;;;;;;14.23;9.48;;;;;;;7.40;40.68;101792.63;4910683;29;20443;-48
2023/01/31 03:22:04;;;;;;;12.33;8.57;;;;;;;7.48;41.37;101794.47;4959281;28;20042;-48
2023/01/31 03:24:32;;;;;;;14.13;9.00;;;;;;;7.38;41.00;101799.97;4984343;28;20279;-48
2023/01/31 03:27:03;;;;;;;15.07;9.45;;;;;;;7.34;41.67;101803.09;4989713;28;20066;-48
2023/01/31 03:29:37;;;;;;;9.98;7.97;;;;;;;7.18;42.13;101808.38;5008618;28;20062;-48
2023/01/31 03:32:16;;;;;;;10.13;7.28;;;;;;;7.31;43.01;101809.56;5011403;28;20033;-48
2023/01/31 03:34:43;;;;;;;8.98;6.32;;;;;;;7.05;42.50;101814.97;5011553;28;20475;-47
2023/01/31 03:37:54;;;;;;;8.20;5.30;;;;;;;6.91;42.60;101820.88;5011351;28;20056;-48
2023/01/31 03:40:46;;;;;;;7.10;4.20;;;;;;;6.80;42.45;101819.31;5010919;28;20065;-48
2023/01/31 03:43:33;;;;;;;8.93;4.80;;;;;;;6.78;42.77;101815.16;4991613;28;20396;-49
2023/01/31 03:46:11;;;;;;;7.88;4.35;;;;;;;6.71;43.12;101822.91;5000969;28;20026;-48
2023/01/31 03:48:42;;;;;;;6.57;4.40;;;;;;;6.78;44.26;101831.13;5011014;28;20042;-49
2023/01/31 03:51:14;;;;;;;6.38;3.85;;;;;;;6.74;44.40;101829.75;5011279;28;20065;-50
2023/01/31 03:53:49;;;;;;;7.53;4.43;;;;;;;6.61;44.24;101830.19;5010699;28;20032;-48
2023/01/31 03:56:33;;;;;;;6.53;4.57;;;;;;;6.66;44.66;101825.19;5011160;28;20072;-48
2023/01/31 03:59:07;;;;;;;8.63;3.95;;;;;;;6.47;45.13;101838.69;5011047;28;20034;-48
2023/01/31 04:01:38;;;;;;;7.18;4.25;;;;;;;6.38;45.19;101844.94;5011440;28;20030;-48
2023/01/31 04:04:09;;;;;;;8.75;4.53;;;;;;;6.44;45.83;101846.97;5011214;28;20057;-48
2023/01/31 04:06:36;;;;;;;8.63;4.38;;;;;;;6.20;46.10;101847.63;5011205;28;20022;-49
2023/01/31 04:09:03;;;;;;;8.50;4.38;;;;;;;6.18;46.29;101844.28;5010828;28;20029;-47
2023/01/31 04:11:34;;;;;;;7.35;4.65;;;;;;;6.12;46.85;101850.22;5010950;28;20042;-46
2023/01/31 04:14:01;;;;;;;8.50;4.40;;;;;;;6.14;47.14;101851.72;5011252;28;20057;-47
2023/01/31 04:16:27;;;;;;;7.63;4.13;;;;;;;5.94;47.30;101848.38;5010899;28;20033;-47
2023/01/31 04:18:55;;;;;;;7.82;3.65;;;;;;;5.91;47.31;101845.16;5010279;28;20022;-47
2023/01/31 04:21:21;;;;;;;5.13;3.20;;;;;;;5.72;47.51;101849.63;5013421;28;20025;-48
2023/01/31 04:23:48;;;;;;;5.32;3.28;;;;;;;5.67;47.38;101856.38;5014883;28;20041;-49
2023/01/31 04:26:14;;;;;;;4.75;2.97;;;;;;;5.66;47.47;101859.97;5014579;28;20084;-48
2023/01/31 04:28:41;;;;;;;3.50;2.50;;;;;;;5.72;47.63;101856.72;5013901;28;20088;-49
2023/01/31 04:31:07;;;;;;;3.67;2.70;;;;;;;5.66;47.76;101860.81;5014364;28;20113;-47
2023/01/31 04:33:33;;;;;;;4.47;2.63;;;;;;;5.61;47.78;101860.44;5014257;28;20470;-48
2023/01/31 04:36:00;;;;;;;6.20;2.72;;;;;;;5.48;48.17;101863.44;5014385;28;20480;-47
2023/01/31 04:38:26;;;;;;;4.38;2.80;;;;;;;5.38;48.47;101867.94;5014014;28;20061;-47
2023/01/31 04:40:52;;;;;;;3.10;2.40;;;;;;;5.32;48.83;101873.84;5014068;28;20132;-48
2023/01/31 04:43:18;;;;;;;2.90;2.22;;;;;;;5.32;48.91;101867.72;5014229;28;20548;-48
2023/01/31 04:45:44;;;;;;;5.57;2.95;;;;;;;5.28;49.38;101877.81;5014296;28;20372;-48
2023/01/31 04:48:12;;;;;;;3.90;2.97;;;;;;;5.27;49.51;101884.06;5013849;28;20050;-48
2023/01/31 04:50:38;;;;;;;3.47;2.70;;;;;;;5.21;49.80;101882.00;5012522;28;20049;-48
2023/01/31 04:53:05;;;;;;;4.32;2.88;;;;;;;5.30;49.25;101883.78;5013705;28;20026;-46
2023/01/31 04:55:31;;;;;;;3.53;2.58;;;;;;;5.34;49.14;101877.22;5012031;28;20109;-49
2023/01/31 04:57:57;;;;;;;3.15;2.10;;;;;;;5.05;50.01;101885.25;5013188;28;20030;-47
2023/01/31 05:00:23;;;;;;;3.67;2.00;;;;;;;5.17;49.78;101880.63;5011868;28;20069;-47
2023/01/31 05:02:50;;;;;;;2.65;2.03;;;;;;;4.97;49.68;101883.34;5012172;28;20037;-48
2023/01/31 05:05:17;;;;;;;3.72;2.08;;;;;;;5.07;49.72;101887.78;5011917;28;20026;-47
2023/01/31 05:07:44;;;;;;;3.75;1.92;;;;;;;4.99;49.94;101877.88;5013806;28;20021;-47
2023/01/31 05:10:10;;;;;;;2.78;1.88;;;;;;;4.79;50.37;101881.56;5013510;28;20558;-47
2023/01/31 05:12:36;;;;;;;2.40;1.50;;;;;;;4.65;50.74;101885.50;5013679;28;20033;-47
2023/01/31 05:15:06;;;;;;;3.08;2.08;;;;;;;4.67;50.86;101889.69;5011842;28;20053;-47
2023/01/31 05:17:33;;;;;;;2.33;1.60;;;;;;;4.67;51.05;101884.38;5013458;28;20038;-47
2023/01/31 05:20:00;;;;;;;3.00;1.80;;;;;;;4.41;51.55;101889.44;5011260;28;20037;-48
2023/01/31 05:22:26;;;;;;;2.08;1.58;;;;;;;4.34;51.88;101882.19;5013560;28;20026;-48
2023/01/31 05:24:52;;;;;;;4.25;1.88;;;;;;;4.38;51.59;101886.19;5011645;28;20080;-47
2023/01/31 05:27:19;;;;;;;1.85;1.55;;;;;;;4.43;51.67;101881.31;5013546;28;20593;-48
2023/01/31 05:29:46;;;;;;;2.35;1.73;;;;;;;4.39;51.94;101880.78;5010870;28;20026;-51
2023/01/31 05:32:13;;;;;;;2.25;1.48;;;;;;;4.16;52.50;101879.38;5012566;28;20384;-51
2023/01/31 05:34:39;;;;;;;3.08;1.58;;;;;;;4.17;52.68;101879.25;5011449;28;20145;-49
2023/01/31 05:37:06;;;;;;;3.55;1.88;;;;;;;4.28;52.45;101880.94;5013342;28;20022;-49
2023/01/31 05:39:32;;;;;;;4.10;2.05;;;;;;;4.02;53.04;101877.13;5011284;28;20025;-52
2023/01/31 05:41:58;;;;;;;3.13;1.75;;;;;;;4.04;52.89;101877.81;5013011;28;20074;-48
2023/01/31 05:44:25;;;;;;;2.80;1.70;;;;;;;4.13;53.03;101890.25;5011292;28;20088;-49
2023/01/31 05:46:51;;;;;;;2.35;1.77;;;;;;;3.97;52.95;101888.97;5012848;28;20065;-48
2023/01/31 05:49:17;;;;;;;4.75;1.88;;;;;;;3.84;53.40;101890.22;5011003;28;20096;-49
2023/01/31 05:51:44;;;;;;;2.67;1.92;;;;;;;4.01;53.14;101899.31;5012991;28;20026;-52
2023/01/31 05:54:11;;;;;;;1.45;1.30;;;;;;;3.85;53.46;101898.03;5011212;28;20041;-50
2023/01/31 05:56:38;;;;;;;2.10;1.60;;;;;;;3.95;53.50;101892.75;5013031;28;20030;-49
2023/01/31 05:59:04;;;;;;;2.33;1.50;;;;;;;4.05;53.51;101901.53;5010398;28;20025;-51
2023/01/31 06:01:30;;;;;;;1.70;1.60;;;;;;;3.81;53.59;101891.31;5008511;28;20033;-49
2023/01/31 06:03:57;;;;;;;4.30;2.35;;;;;;;3.55;54.74;101896.25;5013406;28;20034;-49
2023/01/31 06:06:23;;;;;;;2.60;2.17;;;;;;;3.75;54.37;101896.31;5012523;28;20037;-48
2023/01/31 06:08:49;;;;;;;2.53;2.08;;;;;;;3.76;54.57;101893.53;5010303;28;20044;-48
2023/01/31 06:11:17;;;;;;;4.30;2.47;;;;;;;3.74;54.59;101895.47;5012424;28;20546;-49
2023/01/31 06:13:43;;;;;;;3.45;2.45;;;;;;;3.58;54.79;101900.44;5011659;28;20033;-51
2023/01/31 06:16:10;;;;;;;3.70;2.60;;;;;;;3.59;54.65;101904.78;5012166;28;20484;-48
2023/01/31 06:18:37;;;;;;;4.30;2.70;;;;;;;3.71;54.56;101898.38;5012028;28;20026;-51
2023/01/31 06:21:03;;;;;;;3.63;3.17;;;;;;;3.64;54.59;101910.50;5010707;28;20026;-50
2023/01/31 06:23:29;;;;;;;5.05;2.85;;;;;;;3.56;54.67;101902.41;5012580;28;20026;-52
2023/01/31 06:25:56;;;;;;;4.90;3.20;;;;;;;3.38;54.91;101912.75;5010698;28;20029;-50
2023/01/31 06:28:22;;;;;;;5.47;2.85;;;;;;;3.30;55.03;101910.78;5012046;28;20040;-49
2023/01/31 06:30:50;;;;;;;4.22;2.65;;;;;;;3.28;55.31;101907.44;5010040;28;20038;-51
2023/01/31 06:33:16;;;;;;;3.00;2.42;;;;;;;3.25;55.43;101910.34;5012127;28;20484;-48
2023/01/31 06:35:42;;;;;;;3.63;2.42;;;;;;;3.15;55.51;101910.28;5009240;28;20041;-48
2023/01/31 06:38:11;;;;;;;2.45;2.10;;;;;;;3.38;54.53;101910.94;5011812;28;20034;-51
2023/01/31 06:40:37;;;;;;;3.03;2.20;;;;;;;3.28;54.58;101915.38;5009223;28;20065;-50
2023/01/31 06:43:03;;;;;;;3.38;2.10;;;;;;;3.37;54.57;101919.88;5011682;28;20029;-49
2023/01/31 06:45:30;;;;;;;2.33;2.00;;;;;;;3.29;54.36;101921.50;5010091;28;20034;-49
2023/01/31 06:47:56;;;;;;;2.67;1.85;;;;;;;3.36;54.31;101912.06;5011472;28;20512;-51
2023/01/31 06:50:22;;;;;;;4.30;1.70;;;;;;;3.29;54.05;101921.50;5008634;28;20476;-49
2023/01/31 06:52:49;;;;;;;2.67;1.90;;;;;;;3.35;54.29;101921.81;5011545;28;20523;-49
2023/01/31 06:55:15;;;;;;;5.00;1.98;;;;;;;3.19;54.56;101916.16;5010297;28;20029;-48
2023/01/31 06:57:48;;;;;;;3.70;2.17;;;;;;;3.18;54.64;101923.28;5011569;28;20036;-48
2023/01/31 07:00:17;;;;;;;1.77;1.60;;;;;;;3.08;54.58;101914.44;5009795;28;20510;-47
2023/01/31 07:02:44;;;;;;;2.97;2.00;;;;;;;3.02;54.81;101922.06;5011976;28;20100;-49
2023/01/31 07:05:11;;;;;;;3.72;1.90;;;;;;;3.00;55.07;101916.91;5009646;28;20026;-50
2023/01/31 07:07:37;;;;;;;3.58;1.90;;;;;;;3.04;55.16;101920.13;5011457;28;20033;-51
2023/01/31 07:10:03;;;;;;;3.65;2.20;;;;;;;2.73;56.17;101929.81;5009803;28;20034;-48
2023/01/31 07:12:29;;;;;;;5.38;2.47;;;;;;;2.83;56.15;101941.25;5011663;28;20758;-49
2023/01/31 07:14:56;;;;;;;1.73;1.63;;;;;;;2.61;56.78;101940.44;5010371;28;20480;-48
2023/01/31 07:17:22;;;;;;;1.95;1.70;;;;;;;2.66;56.42;101945.31;5011269;28;20030;-47
2023/01/31 07:19:48;;;;;;;3.05;2.20;;;;;;;2.70;56.49;101941.47;5011023;28;20117;-49
2023/01/31 07:22:15;;;;;;;2.20;1.70;;;;;;;2.84;56.00;101943.81;5011680;28;20125;-49
2023/01/31 07:24:41;;;;;;;2.33;1.92;;;;;;;2.38;57.69;101954.69;5010638;28;20029;-48
2023/01/31 07:27:07;;;;;;;3.95;2.22;;;;;;;2.13;58.18;101942.66;5011532;28;20034;-48
2023/01/31 07:29:34;;;;;;;3.33;2.28;;;;;;;2.04;57.13;101941.56;5009540;28;20057;-51
2023/01/31 07:32:00;;;;;;;3.65;2.50;;;;;;;1.76;58.30;101945.56;5011280;28;20212;-47
2023/01/31 07:34:26;;;;;;;3.25;2.35;;;;;;;1.64;56.53;101951.00;5009079;28;20374;-48
2023/01/31 07:36:52;;;;;;;1.90;1.40;;;;;;;1.97;55.36;101947.47;5011421;28;20022;-47
2023/01/31 07:39:18;;;;;;;2.47;1.73;;;;;;;1.81;52.92;101943.41;5008955;28;20091;-48
2023/01/31 07:41:45;;;;;;;2.88;2.10;;;;;;;2.21;50.46;101937.56;5011205;28;20104;-48
2023/01/31 07:44:11;;;;;;;5.13;2.17;;;;;;;2.21;48.35;101934.09;5009658;28;20744;-49
2023/01/31 07:46:39;;;;;;;3.33;1.98;;;;;;;2.34;48.56;101940.06;5011389;28;20133;-50
2023/01/31 07:49:05;;;;;;;1.83;1.40;;;;;;;2.41;46.79;101932.47;5009504;28;20403;-49
2023/01/31 07:51:31;;;;;;;2.28;1.52;;;;;;;2.53;47.35;101931.44;5000161;28;20559;-51
2023/01/31 07:53:57;;;;;;;1.95;1.35;;;;;;;2.67;47.90;101936.44;4996012;28;20041;-50
2023/01/31 07:56:24;;;;;;;1.50;1.30;;;;;;;2.64;47.57;101937.53;5013847;28;20028;-47
2023/01/31 07:58:50;;;;;;;2.05;1.10;;;;;;;2.86;46.28;101941.84;5013810;28;20029;-48
2023/01/31 08:04:02;;;;;;;;;;;;;;;2.77;50.20;101955.00;5013345;28;20668;-48
2023/01/31 08:06:30;;;;;;;3.00;1.67;;;;;;;2.70;50.54;101962.63;5014622;28;20012;-47
2023/01/31 08:08:57;;;;;;;1.83;1.40;;;;;;;2.77;50.70;101971.69;5013412;28;20157;-49
2023/01/31 08:11:23;;;;;;;2.55;1.70;;;;;;;2.78;51.06;101978.69;5014559;28;20491;-51
2023/01/31 08:13:50;;;;;;;2.33;1.70;;;;;;;2.90;51.40;101974.19;5012802;28;20068;-48
2023/01/31 08:16:16;;;;;;;3.00;1.88;;;;;;;2.68;52.07;101969.84;5014645;28;20026;-48
2023/01/31 08:18:42;;;;;;;2.83;1.70;;;;;;;2.58;52.78;101974.19;5011575;28;20161;-51
2023/01/31 08:21:11;;;;;;;3.65;2.33;;;;;;;2.45;54.03;101979.66;5014704;28;20135;-48
2023/01/31 08:23:39;;;;;;;3.55;2.15;;;;;;;2.34;54.87;101977.88;4997197;28;20386;-51
2023/01/31 08:26:11;;;;;;;3.20;2.65;;;;;;;2.25;55.65;101973.34;5013155;28;20026;-49
2023/01/31 08:28:39;;;;;;;3.90;3.20;;;;;;;2.13;56.42;101971.69;5014059;28;20424;-52
2023/01/31 08:31:07;;;;;;;4.63;2.80;;;;;;;2.15;55.84;101958.34;5014288;28;20022;-50
2023/01/31 08:33:33;;;;;;;4.32;2.53;;;;;;;2.25;55.17;101961.94;5012337;28;20388;-48
2023/01/31 08:36:09;;;;;;;4.35;2.60;;;;;;;2.27;54.47;101971.41;5014649;28;20025;-50
2023/01/31 08:38:36;;;;;;;2.20;1.73;;;;;;;2.34;54.16;101972.59;5012549;28;20030;-48
2023/01/31 08:41:02;;;;;;;3.65;2.00;;;;;;;2.54;53.07;101967.47;5016660;23;20089;-49
2023/01/31 08:43:28;;;;;;;2.45;1.95;;;;;;;2.42;52.22;101963.22;5052219;28;20112;-48
2023/01/31 08:45:54;;;;;;;2.75;1.58;;;;;;;2.18;52.38;101966.88;5053891;28;20021;-48
2023/01/31 08:48:20;;;;;;;3.97;2.15;;;;;;;2.10;51.17;101961.38;5052715;28;20029;-50
2023/01/31 08:50:47;;;;;;;1.80;1.42;;;;;;;2.06;51.27;101973.16;5054167;28;20033;-51
2023/01/31 08:53:13;;;;;;;2.55;1.25;;;;;;;2.15;50.37;101963.63;5051100;28;20051;-48
2023/01/31 08:55:39;;;;;;;1.45;1.10;;;;;;;2.10;49.27;101978.03;5053717;28;20103;-51
2023/01/31 08:58:05;;;;;;;1.45;1.00;;;;;;;2.23;48.81;101980.56;5050545;28;20036;-49
2023/01/31 09:00:32;;;;;;;1.23;0.80;;;;;;;2.23;48.40;101985.84;5053370;28;20061;-50
2023/01/31 09:03:00;;;;;;;1.13;0.80;;;;;;;2.26;47.59;101980.31;5040564;28;20041;-49
2023/01/31 09:05:28;;;;;;;0.95;0.80;;;;;;;2.31;47.15;101986.06;5033529;28;20026;-48
2023/01/31 09:07:54;;;;;;;1.00;0.60;;;;;;;1.79;48.01;101992.03;5031998;28;20021;-49
2023/01/31 09:10:21;;;;;;;0.75;0.75;;;;;;;1.82;48.16;101989.97;5033262;28;20032;-47
2023/01/31 09:12:48;;;;;;;2.78;0.90;;;;;;;1.72;47.56;101993.44;5038556;28;20471;-47
2023/01/31 09:15:14;;;;;;;0.40;0.38;;;;;;;1.81;47.33;101998.00;5053478;28;20494;-48
2023/01/31 09:17:41;;;;;;;2.20;0.60;;;;;;;2.00;47.03;101989.47;5044758;28;20027;-48
2023/01/31 09:20:09;;;;;;;0.95;0.50;;;;;;;2.16;46.29;101989.91;5032992;28;20061;-49
2023/01/31 09:22:35;;;;;;;0.68;0.40;;;;;;;2.15;46.28;101988.25;5033014;28;20032;-49
2023/01/31 09:25:02;;;;;;;0.98;0.50;;;;;;;2.23;46.32;101993.78;5041695;28;20073;-50
2023/01/31 09:27:29;;;;;;;1.23;0.50;;;;;;;2.25;46.43;101991.84;5052919;28;20059;-50
2023/01/31 09:29:55;;;;;;;0.30;0.30;;;;;;;2.33;45.92;101991.19;5052821;28;20028;-48
2023/01/31 09:32:21;;;;;;;1.58;0.40;;;;;;;2.31;45.83;101990.50;5031512;28;20113;-51
2023/01/31 09:34:48;;;;;;;0.40;0.40;;;;;;;2.51;44.84;101986.25;5032957;28;20026;-47
2023/01/31 09:37:15;;;;;;;1.15;0.57;;;;;;;2.51;44.40;101991.53;5031624;28;20033;-48
2023/01/31 09:39:42;;;;;;;1.77;0.50;;;;;;;2.52;44.79;101996.69;5032673;28;20064;-48
2023/01/31 09:42:23;;;;;;;1.30;0.50;;;;;;;2.36;44.84;101999.72;5045958;28;20040;-49
2023/01/31 09:44:56;;;;;;;0.77;0.50;;;;;;;2.33;44.49;102005.28;5052682;28;20025;-49
2023/01/31 09:47:38;;;;;;;0.63;0.50;;;;;;;2.49;43.47;102002.22;5045364;28;20131;-48
2023/01/31 09:50:06;;;;;;;1.48;0.40;;;;;;;2.29;43.99;102003.84;5052837;28;20037;-48
2023/01/31 09:52:33;;;;;;;2.78;0.50;;;;;;;2.19;44.25;102002.06;5046902;28;20032;-48
2023/01/31 09:54:59;;;;;;;1.30;0.80;;;;;;;2.51;43.82;102000.31;5052318;28;20483;-48
2023/01/31 09:57:35;;;;;;;1.13;0.52;;;;;;;1.40;46.23;102002.09;5049895;28;20037;-47
2023/01/31 10:00:17;;;;;;;0.98;0.55;;;;;;;1.91;44.68;102001.63;5052403;28;20033;-48
2023/01/31 10:03:08;;;;;;;0.68;0.50;;;;;;;1.96;44.76;101993.34;5049608;28;20090;-48
2023/01/31 10:05:49;;;;;;;0.82;0.50;;;;;;;1.28;44.66;101997.75;5027090;28;20388;-47
2023/01/31 10:08:26;;;;;;;1.25;0.80;;;;;;;1.15;46.23;101997.81;5025884;28;20104;-47
2023/01/31 10:10:56;;;;;;;1.30;0.60;;;;;;;1.43;45.03;101996.56;5017895;28;20110;-47
2023/01/31 10:14:03;;;;;;;1.65;0.90;;;;;;;1.78;46.80;102009.66;5012589;28;20026;-48
2023/01/31 10:16:44;;;;;;;1.27;0.70;;;;;;;1.72;47.74;102012.78;4951861;29;20102;-47
2023/01/31 10:19:25;;;;;;;0.93;0.82;;;;;;;1.91;49.79;102008.69;5007957;28;20104;-47
2023/01/31 10:21:56;;;;;;;2.17;1.08;;;;;;;1.80;50.12;102015.66;5031606;28;20116;-47
2023/01/31 10:24:29;;;;;;;1.77;1.00;;;;;;;1.93;50.47;102026.09;5032106;28;20025;-48
2023/01/31 10:27:02;;;;;;;1.92;0.90;;;;;;;1.82;50.83;102028.72;5031872;28;20052;-47
2023/01/31 10:29:35;;;;;;;0.82;0.63;;;;;;;1.82;50.46;102040.13;5031658;28;20026;-48
2023/01/31 10:32:25;;;;;;;1.65;0.70;;;;;;;1.88;50.64;102037.97;5031855;28;20061;-48
2023/01/31 10:34:58;;;;;;;0.90;0.70;;;;;;;1.68;51.45;102037.72;5031787;28;20036;-48
2023/01/31 10:37:48;;;;;;;1.20;0.77;;;;;;;1.67;51.63;102056.34;5031960;28;20039;-49
2023/01/31 10:40:35;;;;;;;1.75;1.05;;;;;;;1.46;51.74;102040.34;5031637;28;20040;-48
2023/01/31 10:43:16;;;;;;;1.05;0.90;;;;;;;0.53;52.33;102037.59;5031874;28;20041;-47
2023/01/31 10:45:42;;;;;;;1.15;0.73;;;;;;;0.19;52.76;102039.19;5031345;28;20646;-47
2023/01/31 10:48:18;;;;;;;1.23;0.88;;;;;;;0.83;50.74;102034.50;5031450;28;20121;-47
2023/01/31 10:50:59;;;;;;;1.05;0.80;;;;;;;0.42;51.26;102029.63;5031320;28;20036;-47
2023/01/31 10:53:49;;;;;;;2.25;0.80;;;;;;;0.33;52.02;102030.28;5031467;28;20026;-47
2023/01/31 10:56:24;;;;;;;0.88;0.60;;;;;;;0.50;50.99;102022.00;5031355;28;20027;-47
2023/01/31 10:58:52;;;;;;;0.88;0.50;;;;;;;0.82;50.27;102026.72;5023554;28;20018;-47
2023/01/31 11:01:18;;;;;;;0.60;0.50;;;;;;;0.78;48.98;102029.59;5011724;28;20139;-48
2023/01/31 11:03:52;;;;;;;0.80;0.60;;;;;;;0.72;48.66;102027.41;5011712;28;20094;-49
2023/01/31 11:06:19;;;;;;;0.38;0.38;;;;;;;0.99;48.68;102026.28;5024562;28;20163;-48
2023/01/31 11:09:10;;;;;;;1.17;0.50;;;;;;;1.14;47.84;102032.22;5031011;28;20064;-48
2023/01/31 11:12:01;;;;;;;0.98;0.52;;;;;;;1.16;47.07;102030.31;5031490;28;20213;-47
2023/01/31 11:14:30;;;;;;;1.60;0.40;;;;;;;1.37;46.80;102035.75;5030996;28;20029;-47
2023/01/31 11:17:13;;;;;;;0.80;0.50;;;;;;;1.39;47.14;102031.19;5031018;28;20045;-47
2023/01/31 11:19:47;;;;;;;0.80;0.50;;;;;;;1.41;46.82;102034.56;5011337;28;20506;-47
2023/01/31 11:22:28;;;;;;;1.13;0.60;;;;;;;1.43;46.70;102032.66;5012073;28;20029;-48
2023/01/31 11:24:56;;;;;;;0.50;0.50;;;;;;;1.44;46.63;102040.44;4993783;28;20025;-47
2023/01/31 11:27:35;;;;;;;0.52;0.40;;;;;;;1.60;46.42;102040.09;5011556;28;20033;-49
2023/01/31 11:30:03;;;;;;;0.77;0.68;;;;;;;1.43;46.75;102032.66;5011997;28;20054;-45
2023/01/31 11:32:34;;;;;;;1.45;0.40;;;;;;;1.58;46.51;102036.75;5023021;28;20030;-47
2023/01/31 11:35:05;;;;;;;0.35;0.35;;;;;;;1.56;46.53;102033.41;5035171;28;20022;-47
2023/01/31 11:37:33;;;;;;;0.70;0.70;;;;;;;1.72;45.93;102039.19;5034852;28;20036;-47
2023/01/31 11:40:02;;;;;;;0.95;0.40;;;;;;;1.64;45.95;102036.28;5034816;28;20076;-47
2023/01/31 11:42:29;;;;;;;0.80;0.50;;;;;;;1.53;46.38;102034.47;5034981;28;20150;-47
2023/01/31 11:44:58;;;;;;;0.65;0.47;;;;;;;1.73;46.17;102040.03;5034728;28;20022;-47
2023/01/31 11:47:32;;;;;;;1.00;0.57;;;;;;;1.65;45.73;102040.59;5034897;28;20029;-47
2023/01/31 11:50:00;;;;;;;0.40;0.32;;;;;;;1.59;45.30;102028.72;5035199;28;20021;-47
2023/01/31 11:52:32;;;;;;;0.82;0.40;;;;;;;1.56;46.23;102030.78;5034814;28;20387;-47
2023/01/31 11:55:08;;;;;;;0.73;0.47;;;;;;;1.84;45.27;102034.75;5034991;28;20381;-48
2023/01/31 11:57:38;;;;;;;0.38;0.30;;;;;;;1.76;45.32;102035.31;5034960;28;20101;-48
2023/01/31 12:00:30;;;;;;;0.90;0.70;;;;;;;1.82;46.82;102034.84;5023692;28;20033;-47
2023/01/31 12:03:06;;;;;;;1.65;0.68;;;;;;;1.55;46.49;102031.69;5034541;28;20026;-48